sensor_id;sensor_type;location;lat;lon;timestamp;temperature;humidity
52295;DHT22;38243;53.212;6.574;2023-12-07T00:01:35;13.90;92.30
52295;DHT22;38243;53.212;6.574;2023-12-07T00:04:02;13.80;92.30
52295;DHT22;38243;53.212;6.574;2023-12-07T00:06:28;13.80;92.30
52295;DHT22;38243;53.212;6.574;2023-12-07T00:08:54;13.80;92.20
52295;DHT22;38243;53.212;6.574;2023-12-07T00:11:27;13.90;92.40
52295;DHT22;38243;53.212;6.574;2023-12-07T00:13:53;13.80;92.30
52295;DHT22;38243;53.212;6.574;2023-12-07T00:16:19;13.80;92.30
52295;DHT22;38243;53.212;6.574;2023-12-07T00:18:44;13.80;92.30
52295;DHT22;38243;53.212;6.574;2023-12-07T00:21:10;13.90;92.30
52295;DHT22;38243;53.212;6.574;2023-12-07T00:23:36;13.80;92.30
52295;DHT22;38243;53.212;6.574;2023-12-07T00:26:04;13.80;92.30
52295;DHT22;38243;53.212;6.574;2023-12-07T00:28:30;13.80;92.20
52295;DHT22;38243;53.212;6.574;2023-12-07T00:30:56;13.80;92.30
52295;DHT22;38243;53.212;6.574;2023-12-07T00:33:22;13.80;92.20
52295;DHT22;38243;53.212;6.574;2023-12-07T00:35:48;13.90;92.20
52295;DHT22;38243;53.212;6.574;2023-12-07T00:38:14;13.90;92.10
52295;DHT22;38243;53.212;6.574;2023-12-07T00:40:39;13.80;92.10
52295;DHT22;38243;53.212;6.574;2023-12-07T00:43:08;13.80;92.10
52295;DHT22;38243;53.212;6.574;2023-12-07T00:45:34;13.80;92.10
52295;DHT22;38243;53.212;6.574;2023-12-07T00:48:00;13.80;92.10
52295;DHT22;38243;53.212;6.574;2023-12-07T00:50:28;13.80;92.10
52295;DHT22;38243;53.212;6.574;2023-12-07T00:52:54;13.80;92.00
52295;DHT22;38243;53.212;6.574;2023-12-07T00:55:20;13.80;92.00
52295;DHT22;38243;53.212;6.574;2023-12-07T00:57:45;13.80;92.00
52295;DHT22;38243;53.212;6.574;2023-12-07T01:00:11;13.90;92.00
52295;DHT22;38243;53.212;6.574;2023-12-07T01:02:37;13.80;91.90
52295;DHT22;38243;53.212;6.574;2023-12-07T01:05:03;13.80;92.00
52295;DHT22;38243;53.212;6.574;2023-12-07T01:07:29;13.80;92.00
52295;DHT22;38243;53.212;6.574;2023-12-07T01:09:55;13.80;92.00
52295;DHT22;38243;53.212;6.574;2023-12-07T01:12:20;13.80;91.90
52295;DHT22;38243;53.212;6.574;2023-12-07T01:14:46;13.80;91.90
52295;DHT22;38243;53.212;6.574;2023-12-07T01:17:12;13.80;91.90
52295;DHT22;38243;53.212;6.574;2023-12-07T01:19:38;13.80;91.90
52295;DHT22;38243;53.212;6.574;2023-12-07T01:22:04;13.80;91.80
52295;DHT22;38243;53.212;6.574;2023-12-07T01:24:30;13.80;91.90
52295;DHT22;38243;53.212;6.574;2023-12-07T01:26:55;13.80;91.90
52295;DHT22;38243;53.212;6.574;2023-12-07T01:29:21;13.80;91.80
52295;DHT22;38243;53.212;6.574;2023-12-07T01:31:48;13.80;91.80
52295;DHT22;38243;53.212;6.574;2023-12-07T01:34:17;13.80;91.80
52295;DHT22;38243;53.212;6.574;2023-12-07T01:36:43;13.80;91.70
52295;DHT22;38243;53.212;6.574;2023-12-07T01:39:09;13.80;91.80
52295;DHT22;38243;53.212;6.574;2023-12-07T01:41:39;13.80;91.70
52295;DHT22;38243;53.212;6.574;2023-12-07T01:44:05;13.80;91.70
52295;DHT22;38243;53.212;6.574;2023-12-07T01:46:34;13.80;91.70
52295;DHT22;38243;53.212;6.574;2023-12-07T01:49:00;13.80;91.70
52295;DHT22;38243;53.212;6.574;2023-12-07T01:51:29;13.80;92.00
52295;DHT22;38243;53.212;6.574;2023-12-07T01:53:55;13.80;91.70
52295;DHT22;38243;53.212;6.574;2023-12-07T01:56:23;13.80;91.70
52295;DHT22;38243;53.212;6.574;2023-12-07T01:58:50;13.70;91.70
52295;DHT22;38243;53.212;6.574;2023-12-07T02:01:16;13.80;91.80
52295;DHT22;38243;53.212;6.574;2023-12-07T02:03:42;13.80;91.80
52295;DHT22;38243;53.212;6.574;2023-12-07T02:06:08;13.80;91.80
52295;DHT22;38243;53.212;6.574;2023-12-07T02:08:35;13.80;91.80
52295;DHT22;38243;53.212;6.574;2023-12-07T02:11:01;13.80;91.70
52295;DHT22;38243;53.212;6.574;2023-12-07T02:13:27;13.80;91.70
52295;DHT22;38243;53.212;6.574;2023-12-07T02:15:54;13.80;91.60
52295;DHT22;38243;53.212;6.574;2023-12-07T02:18:40;13.80;91.60
52295;DHT22;38243;53.212;6.574;2023-12-07T02:21:30;13.80;91.60
52295;DHT22;38243;53.212;6.574;2023-12-07T02:23:57;13.80;91.70
52295;DHT22;38243;53.212;6.574;2023-12-07T02:26:35;13.80;91.70
52295;DHT22;38243;53.212;6.574;2023-12-07T02:29:01;13.80;91.60
52295;DHT22;38243;53.212;6.574;2023-12-07T02:31:27;13.80;91.60
52295;DHT22;38243;53.212;6.574;2023-12-07T02:33:53;13.80;91.60
52295;DHT22;38243;53.212;6.574;2023-12-07T02:36:20;13.80;91.70
52295;DHT22;38243;53.212;6.574;2023-12-07T02:38:50;13.80;91.60
52295;DHT22;38243;53.212;6.574;2023-12-07T02:41:18;13.80;91.60
52295;DHT22;38243;53.212;6.574;2023-12-07T02:43:44;13.80;91.60
52295;DHT22;38243;53.212;6.574;2023-12-07T02:46:10;13.80;91.50
52295;DHT22;38243;53.212;6.574;2023-12-07T02:48:36;13.80;91.60
52295;DHT22;38243;53.212;6.574;2023-12-07T02:51:02;13.80;91.60
52295;DHT22;38243;53.212;6.574;2023-12-07T02:53:28;13.70;91.50
52295;DHT22;38243;53.212;6.574;2023-12-07T02:55:53;13.80;91.50
52295;DHT22;38243;53.212;6.574;2023-12-07T02:58:19;13.80;91.50
52295;DHT22;38243;53.212;6.574;2023-12-07T03:00:45;13.80;91.50
52295;DHT22;38243;53.212;6.574;2023-12-07T03:03:10;13.70;91.50
52295;DHT22;38243;53.212;6.574;2023-12-07T03:05:36;13.70;91.40
52295;DHT22;38243;53.212;6.574;2023-12-07T03:08:02;13.70;91.50
52295;DHT22;38243;53.212;6.574;2023-12-07T03:10:27;13.80;91.60
52295;DHT22;38243;53.212;6.574;2023-12-07T03:12:53;13.70;91.50
52295;DHT22;38243;53.212;6.574;2023-12-07T03:15:19;13.70;91.60
52295;DHT22;38243;53.212;6.574;2023-12-07T03:17:44;13.80;91.70
52295;DHT22;38243;53.212;6.574;2023-12-07T03:20:11;13.70;91.50
52295;DHT22;38243;53.212;6.574;2023-12-07T03:22:37;13.80;91.50
52295;DHT22;38243;53.212;6.574;2023-12-07T03:25:03;13.80;91.40
52295;DHT22;38243;53.212;6.574;2023-12-07T03:27:28;13.80;91.50
52295;DHT22;38243;53.212;6.574;2023-12-07T03:29:54;13.80;91.50
52295;DHT22;38243;53.212;6.574;2023-12-07T03:32:20;13.70;91.40
52295;DHT22;38243;53.212;6.574;2023-12-07T03:34:46;13.80;91.40
52295;DHT22;38243;53.212;6.574;2023-12-07T03:37:11;13.80;91.50
52295;DHT22;38243;53.212;6.574;2023-12-07T03:39:37;13.70;91.40
52295;DHT22;38243;53.212;6.574;2023-12-07T03:42:03;13.70;91.40
52295;DHT22;38243;53.212;6.574;2023-12-07T03:44:29;13.80;91.40
52295;DHT22;38243;53.212;6.574;2023-12-07T03:46:55;13.80;91.40
52295;DHT22;38243;53.212;6.574;2023-12-07T03:49:20;13.70;91.30
52295;DHT22;38243;53.212;6.574;2023-12-07T03:51:46;13.70;91.30
52295;DHT22;38243;53.212;6.574;2023-12-07T03:54:12;13.70;91.30
52295;DHT22;38243;53.212;6.574;2023-12-07T03:56:38;13.70;91.30
52295;DHT22;38243;53.212;6.574;2023-12-07T03:59:06;13.80;91.30
52295;DHT22;38243;53.212;6.574;2023-12-07T04:01:32;13.70;91.40
52295;DHT22;38243;53.212;6.574;2023-12-07T04:03:58;13.70;91.40
52295;DHT22;38243;53.212;6.574;2023-12-07T04:06:24;13.70;91.30
52295;DHT22;38243;53.212;6.574;2023-12-07T04:08:50;13.80;91.30
52295;DHT22;38243;53.212;6.574;2023-12-07T04:11:16;13.70;91.30
52295;DHT22;38243;53.212;6.574;2023-12-07T04:13:43;13.70;91.30
52295;DHT22;38243;53.212;6.574;2023-12-07T04:16:09;13.70;91.10
52295;DHT22;38243;53.212;6.574;2023-12-07T04:18:35;13.70;91.20
52295;DHT22;38243;53.212;6.574;2023-12-07T04:21:02;13.70;91.20
52295;DHT22;38243;53.212;6.574;2023-12-07T04:23:28;13.70;91.20
52295;DHT22;38243;53.212;6.574;2023-12-07T04:25:54;13.70;91.20
52295;DHT22;38243;53.212;6.574;2023-12-07T04:28:19;13.70;91.20
52295;DHT22;38243;53.212;6.574;2023-12-07T04:30:45;13.70;91.20
52295;DHT22;38243;53.212;6.574;2023-12-07T04:33:11;13.70;91.20
52295;DHT22;38243;53.212;6.574;2023-12-07T04:35:37;15.00;91.60
52295;DHT22;38243;53.212;6.574;2023-12-07T04:38:02;13.70;91.30
52295;DHT22;38243;53.212;6.574;2023-12-07T04:40:28;13.70;91.30
52295;DHT22;38243;53.212;6.574;2023-12-07T04:42:54;13.70;91.20
52295;DHT22;38243;53.212;6.574;2023-12-07T04:45:19;13.70;91.20
52295;DHT22;38243;53.212;6.574;2023-12-07T04:47:45;13.70;91.20
52295;DHT22;38243;53.212;6.574;2023-12-07T04:50:12;13.70;91.20
52295;DHT22;38243;53.212;6.574;2023-12-07T04:52:38;13.70;91.10
52295;DHT22;38243;53.212;6.574;2023-12-07T04:55:05;13.70;91.20
52295;DHT22;38243;53.212;6.574;2023-12-07T04:57:34;13.70;91.20
52295;DHT22;38243;53.212;6.574;2023-12-07T05:00:01;13.70;91.20
52295;DHT22;38243;53.212;6.574;2023-12-07T05:02:32;13.70;91.20
52295;DHT22;38243;53.212;6.574;2023-12-07T05:04:58;13.70;91.10
52295;DHT22;38243;53.212;6.574;2023-12-07T05:07:24;13.70;91.10
52295;DHT22;38243;53.212;6.574;2023-12-07T05:09:50;13.70;91.20
52295;DHT22;38243;53.212;6.574;2023-12-07T05:12:18;13.70;91.20
52295;DHT22;38243;53.212;6.574;2023-12-07T05:14:44;13.70;91.20
52295;DHT22;38243;53.212;6.574;2023-12-07T05:17:10;13.70;91.20
52295;DHT22;38243;53.212;6.574;2023-12-07T05:19:39;13.70;91.10
52295;DHT22;38243;53.212;6.574;2023-12-07T05:22:05;13.70;91.10
52295;DHT22;38243;53.212;6.574;2023-12-07T05:24:30;13.70;91.20
52295;DHT22;38243;53.212;6.574;2023-12-07T05:26:59;13.70;91.10
52295;DHT22;38243;53.212;6.574;2023-12-07T05:29:25;13.70;91.10
52295;DHT22;38243;53.212;6.574;2023-12-07T05:31:51;13.70;91.10
52295;DHT22;38243;53.212;6.574;2023-12-07T05:34:17;13.70;91.00
52295;DHT22;38243;53.212;6.574;2023-12-07T05:36:43;13.70;91.10
52295;DHT22;38243;53.212;6.574;2023-12-07T05:39:09;13.70;91.00
52295;DHT22;38243;53.212;6.574;2023-12-07T05:41:36;13.60;90.80
52295;DHT22;38243;53.212;6.574;2023-12-07T05:44:02;13.60;90.60
52295;DHT22;38243;53.212;6.574;2023-12-07T05:46:29;13.60;90.50
52295;DHT22;38243;53.212;6.574;2023-12-07T05:48:55;13.60;90.50
52295;DHT22;38243;53.212;6.574;2023-12-07T05:51:22;13.60;90.60
52295;DHT22;38243;53.212;6.574;2023-12-07T05:53:48;13.50;90.60
52295;DHT22;38243;53.212;6.574;2023-12-07T05:56:18;13.60;90.80
52295;DHT22;38243;53.212;6.574;2023-12-07T05:58:45;13.50;90.70
52295;DHT22;38243;53.212;6.574;2023-12-07T06:01:17;13.50;90.80
52295;DHT22;38243;53.212;6.574;2023-12-07T06:03:43;13.50;90.70
52295;DHT22;38243;53.212;6.574;2023-12-07T06:06:10;13.50;90.70
52295;DHT22;38243;53.212;6.574;2023-12-07T06:08:37;13.50;90.70
52295;DHT22;38243;53.212;6.574;2023-12-07T06:11:03;13.50;90.90
52295;DHT22;38243;53.212;6.574;2023-12-07T06:13:29;13.50;90.70
52295;DHT22;38243;53.212;6.574;2023-12-07T06:15:54;13.50;90.90
52295;DHT22;38243;53.212;6.574;2023-12-07T06:18:20;13.50;91.10
52295;DHT22;38243;53.212;6.574;2023-12-07T06:20:46;13.50;91.30
52295;DHT22;38243;53.212;6.574;2023-12-07T06:23:11;13.50;91.40
52295;DHT22;38243;53.212;6.574;2023-12-07T06:25:41;13.60;91.50
52295;DHT22;38243;53.212;6.574;2023-12-07T06:28:07;13.70;91.60
52295;DHT22;38243;53.212;6.574;2023-12-07T06:30:33;13.70;91.60
52295;DHT22;38243;53.212;6.574;2023-12-07T06:32:59;13.70;91.60
52295;DHT22;38243;53.212;6.574;2023-12-07T06:35:25;13.80;91.50
52295;DHT22;38243;53.212;6.574;2023-12-07T06:37:51;13.80;91.40
52295;DHT22;38243;53.212;6.574;2023-12-07T06:40:17;13.80;91.40
52295;DHT22;38243;53.212;6.574;2023-12-07T06:42:43;13.90;91.30
52295;DHT22;38243;53.212;6.574;2023-12-07T06:45:09;13.90;91.30
52295;DHT22;38243;53.212;6.574;2023-12-07T06:47:40;13.90;91.20
52295;DHT22;38243;53.212;6.574;2023-12-07T06:50:08;13.90;91.10
52295;DHT22;38243;53.212;6.574;2023-12-07T06:52:36;13.90;91.10
52295;DHT22;38243;53.212;6.574;2023-12-07T06:55:02;13.90;91.00
52295;DHT22;38243;53.212;6.574;2023-12-07T06:57:27;13.90;91.00
52295;DHT22;38243;53.212;6.574;2023-12-07T06:59:53;13.90;90.90
52295;DHT22;38243;53.212;6.574;2023-12-07T07:02:19;14.00;90.90
52295;DHT22;38243;53.212;6.574;2023-12-07T07:04:45;14.00;90.90
52295;DHT22;38243;53.212;6.574;2023-12-07T07:07:10;14.00;90.90
52295;DHT22;38243;53.212;6.574;2023-12-07T07:09:36;14.00;90.80
52295;DHT22;38243;53.212;6.574;2023-12-07T07:12:02;14.00;90.80
52295;DHT22;38243;53.212;6.574;2023-12-07T07:14:28;14.00;90.80
52295;DHT22;38243;53.212;6.574;2023-12-07T07:16:54;14.20;90.80
52295;DHT22;38243;53.212;6.574;2023-12-07T07:19:19;14.00;90.70
52295;DHT22;38243;53.212;6.574;2023-12-07T07:21:45;14.00;90.70
52295;DHT22;38243;53.212;6.574;2023-12-07T07:24:11;14.00;90.60
52295;DHT22;38243;53.212;6.574;2023-12-07T07:26:37;14.00;90.60
52295;DHT22;38243;53.212;6.574;2023-12-07T07:29:04;14.00;90.60
52295;DHT22;38243;53.212;6.574;2023-12-07T07:31:30;14.00;90.50
52295;DHT22;38243;53.212;6.574;2023-12-07T07:33:55;14.00;90.50
52295;DHT22;38243;53.212;6.574;2023-12-07T07:36:21;14.00;90.50
52295;DHT22;38243;53.212;6.574;2023-12-07T07:38:47;14.00;90.50
52295;DHT22;38243;53.212;6.574;2023-12-07T07:41:14;14.00;90.50
52295;DHT22;38243;53.212;6.574;2023-12-07T07:43:39;14.00;90.50
52295;DHT22;38243;53.212;6.574;2023-12-07T07:46:05;14.00;90.40
52295;DHT22;38243;53.212;6.574;2023-12-07T07:48:31;14.00;90.40
52295;DHT22;38243;53.212;6.574;2023-12-07T07:50:57;14.00;90.40
52295;DHT22;38243;53.212;6.574;2023-12-07T07:53:24;14.00;90.40
52295;DHT22;38243;53.212;6.574;2023-12-07T07:55:50;14.00;90.40
52295;DHT22;38243;53.212;6.574;2023-12-07T07:58:15;14.00;90.40
52295;DHT22;38243;53.212;6.574;2023-12-07T08:00:41;14.10;90.70
52295;DHT22;38243;53.212;6.574;2023-12-07T08:03:07;14.10;90.60
52295;DHT22;38243;53.212;6.574;2023-12-07T08:05:33;14.20;90.80
52295;DHT22;38243;53.212;6.574;2023-12-07T08:07:58;14.20;90.90
52295;DHT22;38243;53.212;6.574;2023-12-07T08:10:24;14.20;90.80
52295;DHT22;38243;53.212;6.574;2023-12-07T08:12:50;14.20;90.90
52295;DHT22;38243;53.212;6.574;2023-12-07T08:15:16;14.20;91.00
52295;DHT22;38243;53.212;6.574;2023-12-07T08:17:42;14.30;90.80
52295;DHT22;38243;53.212;6.574;2023-12-07T08:20:11;14.20;90.30
52295;DHT22;38243;53.212;6.574;2023-12-07T08:22:38;14.20;90.10
52295;DHT22;38243;53.212;6.574;2023-12-07T08:25:05;14.20;90.00
52295;DHT22;38243;53.212;6.574;2023-12-07T08:27:34;14.10;89.60
52295;DHT22;38243;53.212;6.574;2023-12-07T08:30:01;14.10;89.30
52295;DHT22;38243;53.212;6.574;2023-12-07T08:32:27;14.10;89.60
52295;DHT22;38243;53.212;6.574;2023-12-07T08:34:53;14.10;89.30
52295;DHT22;38243;53.212;6.574;2023-12-07T08:37:18;14.10;89.30
52295;DHT22;38243;53.212;6.574;2023-12-07T08:39:45;14.10;89.50
52295;DHT22;38243;53.212;6.574;2023-12-07T08:42:11;14.10;90.00
52295;DHT22;38243;53.212;6.574;2023-12-07T08:44:37;14.10;91.90
52295;DHT22;38243;53.212;6.574;2023-12-07T08:47:03;14.10;93.50
52295;DHT22;38243;53.212;6.574;2023-12-07T08:49:29;14.20;93.80
52295;DHT22;38243;53.212;6.574;2023-12-07T08:51:55;14.20;93.90
52295;DHT22;38243;53.212;6.574;2023-12-07T08:54:21;14.20;93.50
52295;DHT22;38243;53.212;6.574;2023-12-07T08:56:47;14.20;93.00
52295;DHT22;38243;53.212;6.574;2023-12-07T08:59:13;14.20;92.70
52295;DHT22;38243;53.212;6.574;2023-12-07T09:01:39;14.20;92.60
52295;DHT22;38243;53.212;6.574;2023-12-07T09:04:05;14.20;92.60
52295;DHT22;38243;53.212;6.574;2023-12-07T09:06:31;14.30;92.40
52295;DHT22;38243;53.212;6.574;2023-12-07T09:08:57;14.30;92.30
52295;DHT22;38243;53.212;6.574;2023-12-07T09:11:23;14.30;92.10
52295;DHT22;38243;53.212;6.574;2023-12-07T09:13:49;14.40;92.10
52295;DHT22;38243;53.212;6.574;2023-12-07T09:16:15;14.40;92.00
52295;DHT22;38243;53.212;6.574;2023-12-07T09:18:42;14.50;91.90
52295;DHT22;38243;53.212;6.574;2023-12-07T09:21:08;14.50;91.50
52295;DHT22;38243;53.212;6.574;2023-12-07T09:23:34;14.60;91.40
52295;DHT22;38243;53.212;6.574;2023-12-07T09:26:00;14.60;91.50
52295;DHT22;38243;53.212;6.574;2023-12-07T09:28:26;14.70;91.50
52295;DHT22;38243;53.212;6.574;2023-12-07T09:30:52;14.80;91.20
52295;DHT22;38243;53.212;6.574;2023-12-07T09:33:18;14.80;91.20
52295;DHT22;38243;53.212;6.574;2023-12-07T09:35:44;14.90;91.20
52295;DHT22;38243;53.212;6.574;2023-12-07T09:38:09;15.00;91.00
52295;DHT22;38243;53.212;6.574;2023-12-07T09:40:35;15.00;90.70
52295;DHT22;38243;53.212;6.574;2023-12-07T09:43:01;15.00;90.50
52295;DHT22;38243;53.212;6.574;2023-12-07T09:45:27;15.10;90.30
52295;DHT22;38243;53.212;6.574;2023-12-07T09:47:54;15.10;90.30
52295;DHT22;38243;53.212;6.574;2023-12-07T09:50:26;15.20;90.40
52295;DHT22;38243;53.212;6.574;2023-12-07T09:52:57;15.20;90.10
52295;DHT22;38243;53.212;6.574;2023-12-07T09:55:23;15.20;90.20
52295;DHT22;38243;53.212;6.574;2023-12-07T09:57:50;15.30;90.00
52295;DHT22;38243;53.212;6.574;2023-12-07T10:00:17;15.30;89.80
52295;DHT22;38243;53.212;6.574;2023-12-07T10:02:44;15.30;89.90
52295;DHT22;38243;53.212;6.574;2023-12-07T10:05:12;15.40;89.50
52295;DHT22;38243;53.212;6.574;2023-12-07T10:07:43;15.40;89.50
52295;DHT22;38243;53.212;6.574;2023-12-07T10:10:09;15.40;89.80
52295;DHT22;38243;53.212;6.574;2023-12-07T10:12:51;15.50;89.70
52295;DHT22;38243;53.212;6.574;2023-12-07T10:15:18;15.50;88.70
52295;DHT22;38243;53.212;6.574;2023-12-07T10:17:52;15.50;88.60
52295;DHT22;38243;53.212;6.574;2023-12-07T10:20:23;15.50;88.30
52295;DHT22;38243;53.212;6.574;2023-12-07T10:23:05;15.50;88.10
52295;DHT22;38243;53.212;6.574;2023-12-07T10:25:35;15.60;88.50
52295;DHT22;38243;53.212;6.574;2023-12-07T10:28:01;15.60;88.90
52295;DHT22;38243;53.212;6.574;2023-12-07T10:30:32;15.60;88.60
52295;DHT22;38243;53.212;6.574;2023-12-07T10:32:57;15.70;88.80
52295;DHT22;38243;53.212;6.574;2023-12-07T10:35:23;15.70;88.50
52295;DHT22;38243;53.212;6.574;2023-12-07T10:37:49;15.70;88.10
52295;DHT22;38243;53.212;6.574;2023-12-07T10:40:15;15.70;87.90
52295;DHT22;38243;53.212;6.574;2023-12-07T10:42:42;15.40;87.30
52295;DHT22;38243;53.212;6.574;2023-12-07T10:45:08;15.80;87.80
52295;DHT22;38243;53.212;6.574;2023-12-07T10:47:36;15.80;87.20
52295;DHT22;38243;53.212;6.574;2023-12-07T10:50:05;15.80;87.30
52295;DHT22;38243;53.212;6.574;2023-12-07T10:52:39;15.80;86.90
52295;DHT22;38243;53.212;6.574;2023-12-07T10:55:20;15.80;87.10
52295;DHT22;38243;53.212;6.574;2023-12-07T10:57:52;15.90;87.20
52295;DHT22;38243;53.212;6.574;2023-12-07T11:00:19;15.90;87.40
52295;DHT22;38243;53.212;6.574;2023-12-07T11:02:45;15.90;87.00
52295;DHT22;38243;53.212;6.574;2023-12-07T11:05:11;15.90;86.70
52295;DHT22;38243;53.212;6.574;2023-12-07T11:10:27;16.00;86.40
52295;DHT22;38243;53.212;6.574;2023-12-07T11:13:11;16.00;85.40
52295;DHT22;38243;53.212;6.574;2023-12-07T11:15:38;16.00;85.30
52295;DHT22;38243;53.212;6.574;2023-12-07T11:18:05;16.00;85.30
52295;DHT22;38243;53.212;6.574;2023-12-07T11:20:42;16.00;84.90
52295;DHT22;38243;53.212;6.574;2023-12-07T11:23:09;16.00;84.40
52295;DHT22;38243;53.212;6.574;2023-12-07T11:25:36;16.10;84.90
52295;DHT22;38243;53.212;6.574;2023-12-07T11:28:06;16.10;84.60
52295;DHT22;38243;53.212;6.574;2023-12-07T11:30:35;16.10;84.70
52295;DHT22;38243;53.212;6.574;2023-12-07T11:33:05;16.10;84.70
52295;DHT22;38243;53.212;6.574;2023-12-07T11:35:32;16.10;84.20
52295;DHT22;38243;53.212;6.574;2023-12-07T11:40:40;16.20;84.30
52295;DHT22;38243;53.212;6.574;2023-12-07T11:43:06;16.20;84.50
52295;DHT22;38243;53.212;6.574;2023-12-07T11:45:46;16.20;84.70
52295;DHT22;38243;53.212;6.574;2023-12-07T11:48:14;16.20;84.30
52295;DHT22;38243;53.212;6.574;2023-12-07T11:53:29;16.20;84.10
52295;DHT22;38243;53.212;6.574;2023-12-07T11:55:58;16.30;83.80
52295;DHT22;38243;53.212;6.574;2023-12-07T11:58:28;16.20;83.10
52295;DHT22;38243;53.212;6.574;2023-12-07T12:00:55;16.30;83.00
52295;DHT22;38243;53.212;6.574;2023-12-07T12:03:23;16.30;83.00
52295;DHT22;38243;53.212;6.574;2023-12-07T12:05:48;16.30;83.20
52295;DHT22;38243;53.212;6.574;2023-12-07T12:08:16;16.30;83.30
52295;DHT22;38243;53.212;6.574;2023-12-07T12:10:43;16.30;82.80
52295;DHT22;38243;53.212;6.574;2023-12-07T12:13:09;16.30;81.90
52295;DHT22;38243;53.212;6.574;2023-12-07T12:15:35;16.30;82.00
52295;DHT22;38243;53.212;6.574;2023-12-07T12:18:01;15.20;80.30
52295;DHT22;38243;53.212;6.574;2023-12-07T12:20:27;16.20;80.60
52295;DHT22;38243;53.212;6.574;2023-12-07T12:22:54;16.20;80.80
52295;DHT22;38243;53.212;6.574;2023-12-07T12:25:24;16.20;80.50
52295;DHT22;38243;53.212;6.574;2023-12-07T12:27:59;16.20;80.20
52295;DHT22;38243;53.212;6.574;2023-12-07T12:30:27;16.20;80.10
52295;DHT22;38243;53.212;6.574;2023-12-07T12:32:53;16.20;80.00
52295;DHT22;38243;53.212;6.574;2023-12-07T12:35:19;16.10;79.60
52295;DHT22;38243;53.212;6.574;2023-12-07T12:37:46;16.10;79.20
52295;DHT22;38243;53.212;6.574;2023-12-07T12:40:15;16.10;78.60
52295;DHT22;38243;53.212;6.574;2023-12-07T12:42:49;16.00;78.30
52295;DHT22;38243;53.212;6.574;2023-12-07T12:45:16;16.00;78.60
52295;DHT22;38243;53.212;6.574;2023-12-07T12:47:44;15.90;78.60
52295;DHT22;38243;53.212;6.574;2023-12-07T12:50:12;15.80;78.80
52295;DHT22;38243;53.212;6.574;2023-12-07T12:52:40;15.80;78.50
52295;DHT22;38243;53.212;6.574;2023-12-07T12:55:10;15.80;79.40
52295;DHT22;38243;53.212;6.574;2023-12-07T12:57:37;15.80;79.40
52295;DHT22;38243;53.212;6.574;2023-12-07T13:00:04;15.60;79.00
52295;DHT22;38243;53.212;6.574;2023-12-07T13:02:33;15.60;78.60
52295;DHT22;38243;53.212;6.574;2023-12-07T13:04:59;15.50;78.50
52295;DHT22;38243;53.212;6.574;2023-12-07T13:07:25;15.50;78.80
52295;DHT22;38243;53.212;6.574;2023-12-07T13:09:52;15.40;78.70
52295;DHT22;38243;53.212;6.574;2023-12-07T13:12:17;15.30;78.90
52295;DHT22;38243;53.212;6.574;2023-12-07T13:14:43;15.30;78.90
52295;DHT22;38243;53.212;6.574;2023-12-07T13:17:09;15.20;79.00
52295;DHT22;38243;53.212;6.574;2023-12-07T13:19:35;15.20;79.10
52295;DHT22;38243;53.212;6.574;2023-12-07T13:22:01;15.20;80.00
52295;DHT22;38243;53.212;6.574;2023-12-07T13:24:29;15.10;79.50
52295;DHT22;38243;53.212;6.574;2023-12-07T13:26:54;15.10;79.60
52295;DHT22;38243;53.212;6.574;2023-12-07T13:29:22;15.00;79.60
52295;DHT22;38243;53.212;6.574;2023-12-07T13:31:49;15.00;79.60
52295;DHT22;38243;53.212;6.574;2023-12-07T13:34:15;14.90;79.90
52295;DHT22;38243;53.212;6.574;2023-12-07T13:36:41;14.90;80.60
52295;DHT22;38243;53.212;6.574;2023-12-07T13:39:07;14.90;80.80
52295;DHT22;38243;53.212;6.574;2023-12-07T13:41:34;14.90;81.10
52295;DHT22;38243;53.212;6.574;2023-12-07T13:44:00;14.90;81.00
52295;DHT22;38243;53.212;6.574;2023-12-07T13:46:30;14.90;80.40
52295;DHT22;38243;53.212;6.574;2023-12-07T13:48:57;14.90;80.00
52295;DHT22;38243;53.212;6.574;2023-12-07T13:51:23;14.80;79.90
52295;DHT22;38243;53.212;6.574;2023-12-07T13:53:48;14.80;79.90
52295;DHT22;38243;53.212;6.574;2023-12-07T13:56:15;14.70;79.70
52295;DHT22;38243;53.212;6.574;2023-12-07T13:58:41;14.70;80.40
52295;DHT22;38243;53.212;6.574;2023-12-07T14:01:07;14.70;80.00
52295;DHT22;38243;53.212;6.574;2023-12-07T14:03:32;14.70;80.60
52295;DHT22;38243;53.212;6.574;2023-12-07T14:05:58;14.70;80.20
52295;DHT22;38243;53.212;6.574;2023-12-07T14:08:24;14.60;80.00
52295;DHT22;38243;53.212;6.574;2023-12-07T14:10:51;14.70;79.70
52295;DHT22;38243;53.212;6.574;2023-12-07T14:13:17;14.60;79.70
52295;DHT22;38243;53.212;6.574;2023-12-07T14:15:43;14.60;79.70
52295;DHT22;38243;53.212;6.574;2023-12-07T14:18:09;14.50;79.50
52295;DHT22;38243;53.212;6.574;2023-12-07T14:20:35;14.50;79.40
52295;DHT22;38243;53.212;6.574;2023-12-07T14:23:00;14.50;79.30
52295;DHT22;38243;53.212;6.574;2023-12-07T14:25:30;14.40;79.80
52295;DHT22;38243;53.212;6.574;2023-12-07T14:27:56;14.40;79.80
52295;DHT22;38243;53.212;6.574;2023-12-07T14:30:21;14.40;79.70
52295;DHT22;38243;53.212;6.574;2023-12-07T14:32:48;14.30;80.70
52295;DHT22;38243;53.212;6.574;2023-12-07T14:35:20;14.30;80.00
52295;DHT22;38243;53.212;6.574;2023-12-07T14:37:46;14.30;80.40
52295;DHT22;38243;53.212;6.574;2023-12-07T14:40:14;14.30;80.30
52295;DHT22;38243;53.212;6.574;2023-12-07T14:42:43;14.30;80.20
52295;DHT22;38243;53.212;6.574;2023-12-07T14:45:09;14.30;80.70
52295;DHT22;38243;53.212;6.574;2023-12-07T14:47:35;14.30;80.10
52295;DHT22;38243;53.212;6.574;2023-12-07T14:50:02;14.30;79.80
52295;DHT22;38243;53.212;6.574;2023-12-07T14:52:28;14.30;80.00
52295;DHT22;38243;53.212;6.574;2023-12-07T14:54:54;14.30;80.30
52295;DHT22;38243;53.212;6.574;2023-12-07T14:57:20;14.30;79.90
52295;DHT22;38243;53.212;6.574;2023-12-07T14:59:46;14.20;79.50
52295;DHT22;38243;53.212;6.574;2023-12-07T15:02:13;14.20;79.60
52295;DHT22;38243;53.212;6.574;2023-12-07T15:04:39;14.20;79.40
52295;DHT22;38243;53.212;6.574;2023-12-07T15:07:04;14.20;80.10
52295;DHT22;38243;53.212;6.574;2023-12-07T15:09:31;14.20;80.10
52295;DHT22;38243;53.212;6.574;2023-12-07T15:11:57;14.20;79.70
52295;DHT22;38243;53.212;6.574;2023-12-07T15:14:23;14.20;80.00
52295;DHT22;38243;53.212;6.574;2023-12-07T15:16:49;14.10;80.20
52295;DHT22;38243;53.212;6.574;2023-12-07T15:19:15;14.20;80.30
52295;DHT22;38243;53.212;6.574;2023-12-07T15:21:41;14.10;80.10
52295;DHT22;38243;53.212;6.574;2023-12-07T15:24:07;14.10;80.00
52295;DHT22;38243;53.212;6.574;2023-12-07T15:26:33;14.10;79.90
52295;DHT22;38243;53.212;6.574;2023-12-07T15:28:59;14.10;80.00
52295;DHT22;38243;53.212;6.574;2023-12-07T15:31:24;14.10;80.40
52295;DHT22;38243;53.212;6.574;2023-12-07T15:33:50;14.10;80.00
52295;DHT22;38243;53.212;6.574;2023-12-07T15:36:16;14.10;80.20